KNLC/NLC METAR and TAF weather

Enter ICAO airport designator
Station Type Date Time Source
KNLC METAR 2022/12/08 12:10 UTC NOAA

KNLC 081210Z AUTO 13004KT 1/4SM FG CLR 02/01 A3030 RMK AO2 T00220011 RVRNO


Station Type Date Time Source
KNLC Decoded METAR 2022/12/08 12:10 UTC NOAA

LEMOORE NAVAL AIR STATION, CA, United States (KNLC) 36-20N 119-57W 72M
Dec 08, 2022 - 07:10 AM EST / 2022.12.08 1210 UTC
Wind: from the SE (130 degrees) at 5 MPH (4 KT):0
Visibility: 1/4 mile(s):0
Sky conditions: clear
Weather: fog
Temperature: 36.0 F (2.2 C)
Dew Point: 34.0 F (1.1 C)
Relative Humidity: 92%
Pressure (altimeter): 30.3 in. Hg (1026 hPa)
ob: KNLC 081210Z AUTO 13004KT 1/4SM FG CLR 02/01 A3030 RMK AO2 T00220011 RVRNO
cycle: 12

Station Type Date Time Source
KNLC TAF 2022/12/08 07:03 UTC NOAA

TAF TAF KNLC 0807/0907 VRB06KT 4800 BR SKC QNH3030INS
BECMG 0809/0810 VRB06KT 1600 BR SCT005 QNH3031INS
TEMPO 0810/0816 VRB06KT 0400 FG VV002
FM081600 15006KT 6000 BR FEW015 SCT035 SCT200 QNH3032INS
FM081800 15008KT 9999 NSW BKN220 QNH03020INS
FM080600 17008KT 9999 BKN080 BKN180 QNH3021INS AUTOMATED SENSOR METWATCH 0808 TIL 0815 T03/0814Z T12/0823Z FS30184

Example: see airport list